createdAt,value
2023-02-06T00:00:58.348Z,930.02
2023-02-06T00:01:58.284Z,930.09
2023-02-06T00:02:58.239Z,930.03
2023-02-06T00:03:58.315Z,930.03
2023-02-06T00:04:58.260Z,929.99
2023-02-06T00:05:58.291Z,930.01
2023-02-06T00:06:58.820Z,929.96
2023-02-06T00:07:58.928Z,929.93
2023-02-06T00:08:58.821Z,929.93
2023-02-06T00:09:58.278Z,929.88
2023-02-06T00:10:58.861Z,929.89
2023-02-06T00:11:58.207Z,929.89
2023-02-06T00:12:58.823Z,929.87
2023-02-06T00:13:58.150Z,929.86
2023-02-06T00:14:59.021Z,929.83
2023-02-06T00:15:58.124Z,929.87
2023-02-06T00:16:58.100Z,929.84
2023-02-06T00:17:58.815Z,929.84
2023-02-06T00:18:58.089Z,929.80
2023-02-06T00:19:58.094Z,929.78
2023-02-06T00:20:59.063Z,929.71
2023-02-06T00:21:58.046Z,929.72
2023-02-06T00:22:59.224Z,929.75
2023-02-06T00:23:58.090Z,929.74
2023-02-06T00:24:57.989Z,929.73
2023-02-06T00:25:58.847Z,929.72
2023-02-06T00:26:59.203Z,929.71
2023-02-06T00:27:58.013Z,929.71
2023-02-06T00:28:59.169Z,929.70
2023-02-06T00:29:58.011Z,929.65
2023-02-06T00:30:58.090Z,929.68
2023-02-06T00:31:57.966Z,929.67
2023-02-06T00:32:58.834Z,929.71
2023-02-06T00:33:57.954Z,929.77
2023-02-06T00:34:57.914Z,929.74
2023-02-06T00:35:57.921Z,929.72
2023-02-06T00:37:02.136Z,929.71
2023-02-06T00:37:57.923Z,929.74
2023-02-06T00:38:59.065Z,929.72
2023-02-06T00:39:57.892Z,929.74
2023-02-06T00:40:58.457Z,929.77
2023-02-06T00:41:58.939Z,929.71
2023-02-06T00:42:58.395Z,929.71
2023-02-06T00:43:57.804Z,929.69
2023-02-06T00:44:59.560Z,929.70
2023-02-06T00:45:57.794Z,929.70
2023-02-06T00:46:58.174Z,929.70
2023-02-06T00:48:02.781Z,929.70
2023-02-06T00:48:57.925Z,929.77
2023-02-06T00:49:57.732Z,929.76
2023-02-06T00:50:58.931Z,929.76
2023-02-06T00:51:57.724Z,929.79
2023-02-06T00:52:57.677Z,929.79
2023-02-06T00:53:57.781Z,929.80
2023-02-06T00:54:57.736Z,929.78
2023-02-06T00:55:57.678Z,929.87
2023-02-06T00:56:58.418Z,929.85
2023-02-06T00:57:57.726Z,929.90
2023-02-06T00:58:57.681Z,929.91
2023-02-06T00:59:57.743Z,929.91
2023-02-06T01:00:58.227Z,929.91
2023-02-06T01:01:57.657Z,929.93
2023-02-06T01:02:59.274Z,929.94
2023-02-06T01:03:57.590Z,929.98
2023-02-06T01:04:57.644Z,929.95
2023-02-06T01:05:57.588Z,929.99
2023-02-06T01:06:58.358Z,929.99
2023-02-06T01:08:00.231Z,930.02
2023-02-06T01:08:57.528Z,930.04
2023-02-06T01:09:57.546Z,930.03
2023-02-06T01:10:57.472Z,930.04
2023-02-06T01:11:57.523Z,930.04
2023-02-06T01:12:59.266Z,930.08
2023-02-06T01:13:58.418Z,930.04
2023-02-06T01:14:57.490Z,930.06
2023-02-06T01:15:57.489Z,930.07
2023-02-06T01:16:57.418Z,930.04
2023-02-06T01:17:58.389Z,930.06
2023-02-06T01:18:58.055Z,930.04
2023-02-06T01:19:57.451Z,930.00
2023-02-06T01:20:57.395Z,929.97
2023-02-06T01:21:57.367Z,930.04
2023-02-06T01:22:57.339Z,930.03
2023-02-06T01:23:58.890Z,930.06
2023-02-06T01:24:57.320Z,930.04
2023-02-06T01:25:57.326Z,930.03
2023-02-06T01:26:57.339Z,930.04
2023-02-06T01:27:57.347Z,929.97
2023-02-06T01:28:57.290Z,930.01
2023-02-06T01:29:57.360Z,930.01
2023-02-06T01:30:57.376Z,930.03
2023-02-06T01:31:58.946Z,930.04
2023-02-06T01:32:57.250Z,930.06
2023-02-06T01:33:57.247Z,930.07
2023-02-06T01:34:57.200Z,930.04
2023-02-06T01:35:58.068Z,930.03
2023-02-06T01:37:01.049Z,930.01
2023-02-06T01:37:57.403Z,930.06
2023-02-06T01:38:58.621Z,930.07
2023-02-06T01:39:57.165Z,930.09
2023-02-06T01:40:58.011Z,930.11
2023-02-06T01:42:02.768Z,930.08
